Donald, Wisconsin
Current Conditions -  °F | °C
As of 9:35 AM on Thursday 23 Oct 2014 (Local Time) from KRCX Reporting Station
Drizzle Drizzle  
Wind Chill: 42°   Ceiling: 600
Heat Index: 46°   Visibility: 4mi
Dew Point: 44°   Wind: 6mph
Humidity: 94%   Direction: 150°SSE
Pressure: 30.05"   Gusts: NA
Location:  45.2123°N, 90.8091°W
Report Text: KRCX 231435Z AUTO 15005KT 4SM -DZ OVC006 08/07 A3005 RMK AO2 P0001 T00750066
Loading
Personal Weather Stations






























Interactive Weather Map
Tropical Storm Tracking
New forecast layout! Learn more

10-Day Weather Forecast

Advertisements
Track Severe Weather on mobile